Time;durP1;ratioP1;P1;durP2;ratioP2;P2;SDS_P1;SDS_P2;PMS_P1;PMS_P2;Temp;Humidity;BMP_temperature;BMP_pressure;BME280_temperature;BME280_humidity;BME280_pressure;Samples;Min_cycle;Max_cycle;Signal;HPM_P1;HPM_P2
2023/06/20 00:00:20;;;;;;;;;;;25.20;52.30;;;;;;10334885;28;90398;-66
2023/06/20 00:05:22;;;;;;;;;;;25.20;52.30;;;;;;10334577;28;89098;-66
2023/06/20 00:10:25;;;;;;;;;;;25.20;52.30;;;;;;10316636;28;89056;-65
2023/06/20 00:15:27;;;;;;;;;;;25.20;52.30;;;;;;10334554;28;89281;-66
2023/06/20 00:20:29;;;;;;;;;;;25.20;52.30;;;;;;10334027;28;89276;-66
2023/06/20 00:25:31;;;;;;;;;;;25.20;52.30;;;;;;10334591;28;89434;-66
2023/06/20 00:30:33;;;;;;;;;;;25.20;52.30;;;;;;10315492;28;90128;-66
2023/06/20 00:35:34;;;;;;;;;;;25.20;52.20;;;;;;10333928;28;90113;-65
2023/06/20 00:40:36;;;;;;;;;;;25.20;52.20;;;;;;10332443;28;90279;-66
2023/06/20 00:45:38;;;;;;;;;;;25.20;52.20;;;;;;10333519;28;89146;-66
2023/06/20 00:50:40;;;;;;;;;;;25.20;52.30;;;;;;10332695;28;92543;-65
2023/06/20 00:55:42;;;;;;;;;;;25.10;52.10;;;;;;10332922;28;90047;-66
2023/06/20 01:00:43;;;;;;;;;;;25.10;52.20;;;;;;10332909;28;90239;-66
2023/06/20 01:05:50;;;;;;;;;;;25.20;52.20;;;;;;10332724;28;90190;-66
2023/06/20 01:11:02;;;;;;;;;;;25.20;52.20;;;;;;10332161;28;90117;-66
2023/06/20 01:16:20;;;;;;;;;;;25.10;52.10;;;;;;10332806;28;88302;-66
2023/06/20 01:21:29;;;;;;;;;;;25.10;52.20;;;;;;10333115;28;90139;-66
2023/06/20 01:26:36;;;;;;;;;;;25.10;52.20;;;;;;10314429;28;90008;-67
2023/06/20 01:31:40;;;;;;;;;;;25.10;52.10;;;;;;10331649;28;90066;-67
2023/06/20 01:36:43;;;;;;;;;;;25.10;52.10;;;;;;10332360;28;89185;-66
2023/06/20 01:41:46;;;;;;;;;;;25.10;52.10;;;;;;10315163;28;89026;-65
2023/06/20 01:46:48;;;;;;;;;;;25.10;52.10;;;;;;10314744;28;88482;-66
2023/06/20 01:51:55;;;;;;;;;;;25.00;52.10;;;;;;10314396;28;88892;-65
2023/06/20 01:56:58;;;;;;;;;;;25.00;52.10;;;;;;10314747;28;88448;-66
2023/06/20 02:02:01;;;;;;;;;;;25.00;52.20;;;;;;10314302;28;89546;-65
2023/06/20 02:07:04;;;;;;;;;;;25.10;52.30;;;;;;10315351;28;89240;-66
2023/06/20 02:12:07;;;;;;;;;;;25.00;52.30;;;;;;10330838;28;89736;-66
2023/06/20 02:17:12;;;;;;;;;;;25.00;52.30;;;;;;10331263;28;90147;-66
2023/06/20 02:22:16;;;;;;;;;;;25.00;52.30;;;;;;10329661;28;89594;-66
2023/06/20 02:27:19;;;;;;;;;;;25.00;52.30;;;;;;10330337;28;89562;-66
2023/06/20 02:32:21;;;;;;;;;;;25.10;52.40;;;;;;10330507;28;90492;-66
2023/06/20 02:37:25;;;;;;;;;;;25.00;52.40;;;;;;10334529;28;89080;-66
2023/06/20 02:42:26;;;;;;;;;;;25.00;52.30;;;;;;10337366;28;90177;-65
2023/06/20 02:47:38;;;;;;;;;;;25.00;52.40;;;;;;10337688;28;90052;-64
2023/06/20 02:52:53;;;;;;;;;;;25.00;52.40;;;;;;10336312;28;88218;-66
2023/06/20 02:57:56;;;;;;;;;;;25.00;52.40;;;;;;10337434;28;88528;-66
2023/06/20 03:02:59;;;;;;;;;;;25.10;52.50;;;;;;10317987;28;88969;-65
2023/06/20 03:08:02;;;;;;;;;;;25.10;52.40;;;;;;10336094;28;88053;-66
2023/06/20 03:13:05;;;;;;;;;;;25.10;52.50;;;;;;10336511;28;90822;-66
2023/06/20 03:18:08;;;;;;;;;;;25.00;52.40;;;;;;10317649;28;88584;-66
2023/06/20 03:23:10;;;;;;;;;;;25.10;52.40;;;;;;10336913;28;89445;-66
2023/06/20 03:28:11;;;;;;;;;;;25.10;52.50;;;;;;10336339;28;89728;-64
2023/06/20 03:33:13;;;;;;;;;;;25.10;52.50;;;;;;10334889;28;88396;-65
2023/06/20 03:38:15;;;;;;;;;;;25.00;52.40;;;;;;10317923;28;88466;-65
2023/06/20 03:43:17;;;;;;;;;;;25.00;52.40;;;;;;10317103;28;90525;-65
2023/06/20 03:48:21;;;;;;;;;;;25.00;52.50;;;;;;10335383;28;89332;-65
2023/06/20 03:53:23;;;;;;;;;;;25.00;52.60;;;;;;10334030;28;89864;-65
2023/06/20 03:58:25;;;;;;;;;;;25.00;52.60;;;;;;10316833;28;89262;-64
2023/06/20 04:03:28;;;;;;;;;;;25.00;52.60;;;;;;10334072;28;90848;-64
2023/06/20 04:08:30;;;;;;;;;;;25.00;52.70;;;;;;10334714;28;89252;-65
2023/06/20 04:13:32;;;;;;;;;;;25.00;52.60;;;;;;10334923;28;90056;-65
2023/06/20 04:18:34;;;;;;;;;;;25.00;52.70;;;;;;10333463;28;89171;-65
2023/06/20 04:23:35;;;;;;;;;;;25.00;52.70;;;;;;10334477;28;89055;-65
2023/06/20 04:28:37;;;;;;;;;;;25.00;52.80;;;;;;10334634;28;90059;-66
2023/06/20 04:33:43;;;;;;;;;;;25.00;52.80;;;;;;10333024;28;89250;-66
2023/06/20 04:38:45;;;;;;;;;;;24.90;52.80;;;;;;10335355;28;88333;-65
2023/06/20 04:43:46;;;;;;;;;;;24.90;52.70;;;;;;10333889;28;89309;-66
2023/06/20 04:48:48;;;;;;;;;;;24.90;52.80;;;;;;10713843;22;90131;-65
2023/06/20 04:53:50;;;;;;;;;;;25.00;52.80;;;;;;10207460;28;90818;-65
2023/06/20 04:58:52;;;;;;;;;;;25.00;52.90;;;;;;10205572;28;90145;-65
2023/06/20 05:03:54;;;;;;;;;;;24.90;53.30;;;;;;10206226;28;90029;-65
2023/06/20 05:08:56;;;;;;;;;;;24.90;54.00;;;;;;10208503;28;89961;-65
2023/06/20 05:13:57;;;;;;;;;;;24.90;54.10;;;;;;10205390;28;90423;-66
2023/06/20 05:18:59;;;;;;;;;;;24.90;53.70;;;;;;10207482;28;89745;-65
2023/06/20 05:24:01;;;;;;;;;;;24.90;53.60;;;;;;10206222;28;89068;-66
2023/06/20 05:29:03;;;;;;;;;;;24.90;53.50;;;;;;10207587;28;89268;-65
2023/06/20 05:34:05;;;;;;;;;;;25.00;53.70;;;;;;10203262;28;89608;-65
2023/06/20 05:39:09;;;;;;;;;;;25.00;53.70;;;;;;10207636;28;90083;-66
2023/06/20 05:44:10;;;;;;;;;;;24.90;56.80;;;;;;10205871;28;89991;-65
2023/06/20 05:49:14;;;;;;;;;;;24.90;56.30;;;;;;10205061;28;90022;-64
2023/06/20 05:54:16;;;;;;;;;;;24.90;55.80;;;;;;10208156;28;90183;-64
2023/06/20 05:59:18;;;;;;;;;;;24.90;55.80;;;;;;10207663;28;88811;-65
2023/06/20 06:04:19;;;;;;;;;;;24.80;55.90;;;;;;10208039;28;90014;-65
2023/06/20 06:09:21;;;;;;;;;;;24.80;56.40;;;;;;10209408;28;90716;-61
2023/06/20 06:14:23;;;;;;;;;;;24.80;57.00;;;;;;10216110;28;89861;-65
2023/06/20 06:19:25;;;;;;;;;;;24.80;56.90;;;;;;10216813;28;88553;-65
2023/06/20 06:24:27;;;;;;;;;;;24.70;57.50;;;;;;10218631;28;90104;-65
2023/06/20 06:29:29;;;;;;;;;;;24.80;59.70;;;;;;10236167;28;89295;-65
2023/06/20 06:34:31;;;;;;;;;;;24.80;58.50;;;;;;10234490;28;89922;-64
2023/06/20 06:39:33;;;;;;;;;;;24.80;58.10;;;;;;10227396;28;89276;-64
2023/06/20 06:44:35;;;;;;;;;;;24.80;57.90;;;;;;10216482;28;90048;-65
2023/06/20 06:49:36;;;;;;;;;;;24.80;57.80;;;;;;10213200;28;89143;-65
2023/06/20 06:54:38;;;;;;;;;;;24.80;58.60;;;;;;10215579;28;89200;-64
2023/06/20 06:59:40;;;;;;;;;;;24.80;57.80;;;;;;10215771;28;90009;-64
2023/06/20 07:04:41;;;;;;;;;;;24.90;57.70;;;;;;10216453;28;90234;-65
2023/06/20 07:09:43;;;;;;;;;;;24.90;58.00;;;;;;10215750;28;87443;-65
2023/06/20 07:14:45;;;;;;;;;;;24.90;57.60;;;;;;10215301;28;90625;-65
2023/06/20 07:19:46;;;;;;;;;;;24.90;57.50;;;;;;10214677;28;88192;-66
2023/06/20 07:24:49;;;;;;;;;;;24.90;57.50;;;;;;10212927;28;89877;-65
2023/06/20 07:29:55;;;;;;;;;;;24.90;58.60;;;;;;10214288;28;88774;-65
2023/06/20 07:34:57;;;;;;;;;;;24.90;58.00;;;;;;10214231;28;89998;-65
2023/06/20 07:39:59;;;;;;;;;;;24.90;57.80;;;;;;10213653;28;90092;-65
2023/06/20 07:45:01;;;;;;;;;;;24.90;57.70;;;;;;10213975;28;89143;-65
2023/06/20 07:50:03;;;;;;;;;;;24.90;57.60;;;;;;10211429;28;90359;-65
2023/06/20 07:55:05;;;;;;;;;;;24.90;57.40;;;;;;10211037;28;89217;-65
2023/06/20 08:00:25;;;;;;;;;;;24.90;57.40;;;;;;10212580;28;89437;-64
2023/06/20 08:05:27;;;;;;;;;;;24.90;57.40;;;;;;10213820;28;89412;-65
2023/06/20 08:10:29;;;;;;;;;;;24.90;57.30;;;;;;10213894;28;90311;-66
2023/06/20 08:15:31;;;;;;;;;;;24.90;57.20;;;;;;10211454;28;90710;-65
2023/06/20 08:20:33;;;;;;;;;;;24.90;57.10;;;;;;10213286;28;90530;-65
2023/06/20 08:25:34;;;;;;;;;;;24.90;57.10;;;;;;10211549;28;89033;-65
2023/06/20 08:30:36;;;;;;;;;;;25.00;57.00;;;;;;10211549;28;89103;-65
2023/06/20 08:35:38;;;;;;;;;;;25.00;56.80;;;;;;10212804;28;89213;-65
2023/06/20 08:40:40;;;;;;;;;;;25.10;56.70;;;;;;10212583;28;89279;-65
2023/06/20 08:45:42;;;;;;;;;;;25.20;56.40;;;;;;10213146;28;89727;-65
2023/06/20 08:50:47;;;;;;;;;;;25.20;56.20;;;;;;10211488;28;88442;-65
2023/06/20 08:55:51;;;;;;;;;;;25.30;56.10;;;;;;10211786;28;89120;-65
2023/06/20 09:00:53;;;;;;;;;;;25.30;56.00;;;;;;10211985;28;90158;-65
2023/06/20 09:05:55;;;;;;;;;;;25.30;56.00;;;;;;10211101;28;90764;-65
2023/06/20 09:11:10;;;;;;;;;;;25.30;55.90;;;;;;10211738;28;90189;-65
2023/06/20 09:16:12;;;;;;;;;;;25.30;55.90;;;;;;10211065;28;90000;-65
2023/06/20 09:21:16;;;;;;;;;;;25.30;56.00;;;;;;10211556;28;109631;-66
2023/06/20 09:26:18;;;;;;;;;;;25.30;56.00;;;;;;10211361;28;90002;-64
2023/06/20 09:31:20;;;;;;;;;;;25.30;55.90;;;;;;10211203;28;88422;-65
2023/06/20 09:36:22;;;;;;;;;;;25.30;55.90;;;;;;10209366;28;89677;-65
2023/06/20 09:41:24;;;;;;;;;;;25.20;55.90;;;;;;10211825;28;88613;-65
2023/06/20 09:46:26;;;;;;;;;;;25.30;55.90;;;;;;10213275;28;89158;-66
2023/06/20 09:51:28;;;;;;;;;;;25.30;55.80;;;;;;10217984;28;90109;-67
2023/06/20 09:56:35;;;;;;;;;;;25.30;55.70;;;;;;10216446;28;89947;-66
2023/06/20 10:01:38;;;;;;;;;;;25.30;55.60;;;;;;10217902;28;90091;-65
2023/06/20 10:06:40;;;;;;;;;;;25.30;55.50;;;;;;10217243;28;89223;-66
2023/06/20 10:11:42;;;;;;;;;;;25.40;55.60;;;;;;10216555;28;89164;-66
2023/06/20 10:16:51;;;;;;;;;;;25.50;55.40;;;;;;10217648;28;90152;-66
2023/06/20 10:21:59;;;;;;;;;;;25.60;55.30;;;;;;10216780;28;90611;-65
2023/06/20 10:27:03;;;;;;;;;;;25.60;55.20;;;;;;10216154;28;89560;-65
2023/06/20 10:32:05;;;;;;;;;;;25.60;55.10;;;;;;10200261;28;88724;-65
2023/06/20 10:37:14;;;;;;;;;;;25.70;55.00;;;;;;10199173;28;89180;-65
2023/06/20 10:42:35;;;;;;;;;;;25.70;55.00;;;;;;10216325;28;89221;-65
2023/06/20 10:47:37;;;;;;;;;;;25.70;54.90;;;;;;10214496;28;90883;-66
2023/06/20 10:52:42;;;;;;;;;;;25.80;54.90;;;;;;10215698;28;88215;-65
2023/06/20 10:57:45;;;;;;;;;;;25.80;54.90;;;;;;10214721;28;89323;-65
2023/06/20 11:02:48;;;;;;;;;;;25.80;54.90;;;;;;10215510;28;89602;-66
2023/06/20 11:07:51;;;;;;;;;;;25.80;54.90;;;;;;10215024;28;90221;-65
2023/06/20 11:12:54;;;;;;;;;;;25.80;54.90;;;;;;10215581;28;88033;-65
2023/06/20 11:17:56;;;;;;;;;;;25.80;54.80;;;;;;10214998;28;89294;-65
2023/06/20 11:23:01;;;;;;;;;;;25.80;54.80;;;;;;10216297;28;89109;-65
2023/06/20 11:28:07;;;;;;;;;;;25.80;54.90;;;;;;10215184;28;89968;-65
2023/06/20 11:33:09;;;;;;;;;;;25.80;54.90;;;;;;10213429;28;88992;-65
2023/06/20 11:38:15;;;;;;;;;;;25.80;54.90;;;;;;10213578;28;90904;-66
2023/06/20 11:43:21;;;;;;;;;;;25.80;54.90;;;;;;10214536;28;89268;-65
2023/06/20 11:48:22;;;;;;;;;;;25.80;54.90;;;;;;10213015;28;88935;-65
2023/06/20 11:53:35;;;;;;;;;;;25.80;55.00;;;;;;10213454;28;89308;-65
2023/06/20 11:58:41;;;;;;;;;;;25.80;55.00;;;;;;10214604;28;89154;-65
2023/06/20 12:03:44;;;;;;;;;;;25.80;55.10;;;;;;10214591;28;89566;-65
2023/06/20 12:08:51;;;;;;;;;;;25.80;55.20;;;;;;10211971;28;88399;-65
2023/06/20 12:13:54;;;;;;;;;;;25.70;55.10;;;;;;10213825;28;89489;-66
2023/06/20 12:18:59;;;;;;;;;;;25.70;55.10;;;;;;10212721;28;89055;-65
2023/06/20 12:24:01;;;;;;;;;;;25.70;55.20;;;;;;10213923;28;89910;-65
2023/06/20 12:29:03;;;;;;;;;;;25.70;56.20;;;;;;10211711;28;90133;-64
2023/06/20 12:34:05;;;;;;;;;;;25.70;55.30;;;;;;10213096;28;92220;-65
2023/06/20 12:39:07;;;;;;;;;;;25.70;55.30;;;;;;10211657;28;90146;-65
2023/06/20 12:44:09;;;;;;;;;;;25.70;55.40;;;;;;10212580;28;89256;-65
2023/06/20 12:49:11;;;;;;;;;;;25.70;55.30;;;;;;10211441;28;88547;-65
2023/06/20 12:54:12;;;;;;;;;;;25.70;55.40;;;;;;10211872;28;90127;-65
2023/06/20 12:59:14;;;;;;;;;;;25.70;55.40;;;;;;10212348;28;89464;-66
2023/06/20 13:04:16;;;;;;;;;;;25.70;55.40;;;;;;10212614;28;88411;-65
2023/06/20 13:09:18;;;;;;;;;;;25.70;55.40;;;;;;10212483;28;89187;-65
2023/06/20 13:14:19;;;;;;;;;;;25.70;55.40;;;;;;10212042;28;90314;-66
2023/06/20 13:19:21;;;;;;;;;;;25.70;55.40;;;;;;10210103;28;90800;-65
2023/06/20 13:24:23;;;;;;;;;;;25.70;55.40;;;;;;10211683;28;89170;-65
2023/06/20 13:29:25;;;;;;;;;;;25.70;55.40;;;;;;10211375;28;90095;-66
2023/06/20 13:34:27;;;;;;;;;;;25.70;55.50;;;;;;10211661;28;90251;-66
2023/06/20 13:39:30;;;;;;;;;;;25.80;55.50;;;;;;10211610;28;89645;-66
2023/06/20 13:44:34;;;;;;;;;;;25.70;55.50;;;;;;10212075;28;90076;-65
2023/06/20 13:49:35;;;;;;;;;;;25.70;55.50;;;;;;10210762;28;88301;-65
2023/06/20 13:54:37;;;;;;;;;;;25.80;55.60;;;;;;10210810;28;88347;-65
2023/06/20 13:59:39;;;;;;;;;;;25.80;55.60;;;;;;10210649;28;90163;-66
2023/06/20 14:04:44;;;;;;;;;;;25.80;55.60;;;;;;10210598;28;90117;-65
2023/06/20 14:09:46;;;;;;;;;;;25.80;55.60;;;;;;10209668;28;90766;-65
2023/06/20 14:14:48;;;;;;;;;;;25.80;55.50;;;;;;10209591;28;90035;-65
2023/06/20 14:19:50;;;;;;;;;;;25.80;55.60;;;;;;10210566;28;88221;-66
2023/06/20 14:24:52;;;;;;;;;;;25.80;56.50;;;;;;10192704;28;89985;-65
2023/06/20 14:29:59;;;;;;;;;;;25.80;55.50;;;;;;10208253;28;89427;-65
2023/06/20 14:35:02;;;;;;;;;;;25.80;55.60;;;;;;10216492;28;88476;-66
2023/06/20 14:40:04;;;;;;;;;;;25.80;55.60;;;;;;10216346;28;89106;-66
2023/06/20 14:45:06;;;;;;;;;;;25.80;55.60;;;;;;10215548;28;88921;-66
2023/06/20 14:50:08;;;;;;;;;;;25.80;55.60;;;;;;10215539;28;90131;-66
2023/06/20 14:55:10;;;;;;;;;;;25.80;55.60;;;;;;10214524;28;90314;-66
2023/06/20 15:00:14;;;;;;;;;;;25.80;55.70;;;;;;10214942;28;89783;-66
2023/06/20 15:05:16;;;;;;;;;;;25.80;55.70;;;;;;10216329;28;89017;-66
2023/06/20 15:10:18;;;;;;;;;;;25.80;55.90;;;;;;10216290;28;88497;-65
2023/06/20 15:15:20;;;;;;;;;;;25.80;55.80;;;;;;10216455;28;89154;-65
2023/06/20 15:20:24;;;;;;;;;;;25.80;55.90;;;;;;10216428;28;88158;-65
2023/06/20 15:25:26;;;;;;;;;;;25.70;55.80;;;;;;10216427;28;90127;-65
2023/06/20 15:30:28;;;;;;;;;;;25.70;55.90;;;;;;10199007;28;89617;-64
2023/06/20 15:35:30;;;;;;;;;;;25.70;55.90;;;;;;10216697;28;89854;-65
2023/06/20 15:40:32;;;;;;;;;;;25.70;55.90;;;;;;10215110;28;88777;-65
2023/06/20 15:45:34;;;;;;;;;;;25.70;56.00;;;;;;10212322;28;89122;-66
2023/06/20 15:50:36;;;;;;;;;;;25.70;56.10;;;;;;10214518;28;91262;-66
2023/06/20 15:55:38;;;;;;;;;;;25.70;56.40;;;;;;10213940;28;88759;-66
2023/06/20 16:00:40;;;;;;;;;;;25.80;56.90;;;;;;10213814;28;89125;-67
2023/06/20 16:05:41;;;;;;;;;;;25.90;57.40;;;;;;10215346;28;89787;-65
2023/06/20 16:10:43;;;;;;;;;;;26.00;58.00;;;;;;10214228;28;89307;-65
2023/06/20 16:15:45;;;;;;;;;;;26.10;56.90;;;;;;10213162;28;90127;-66
2023/06/20 16:20:47;;;;;;;;;;;26.10;57.20;;;;;;10215493;28;90236;-66
2023/06/20 16:25:49;;;;;;;;;;;26.10;57.40;;;;;;10214586;28;88944;-66
2023/06/20 16:30:51;;;;;;;;;;;26.00;60.40;;;;;;10213105;28;90279;-60
2023/06/20 16:35:55;;;;;;;;;;;25.70;61.80;;;;;;10213751;28;90074;-61
2023/06/20 16:40:57;;;;;;;;;;;25.50;63.00;;;;;;10211768;28;90539;-61
2023/06/20 16:45:59;;;;;;;;;;;25.60;63.00;;;;;;10212744;28;88932;-61
2023/06/20 16:51:01;;;;;;;;;;;25.60;62.90;;;;;;10211496;28;90249;-61
2023/06/20 16:56:03;;;;;;;;;;;25.70;62.70;;;;;;10194043;28;90131;-66
2023/06/20 17:01:05;;;;;;;;;;;25.70;62.60;;;;;;10212958;28;90164;-67
2023/06/20 17:06:07;;;;;;;;;;;25.70;62.50;;;;;;10212173;28;90086;-60
2023/06/20 17:11:09;;;;;;;;;;;25.80;62.30;;;;;;10211522;28;90258;-61
2023/06/20 17:16:10;;;;;;;;;;;25.80;62.10;;;;;;10210983;28;88514;-60
2023/06/20 17:21:12;;;;;;;;;;;25.80;62.10;;;;;;10211594;28;89608;-67
2023/06/20 17:26:14;;;;;;;;;;;25.80;62.00;;;;;;10211164;28;89249;-66
2023/06/20 17:31:16;;;;;;;;;;;25.80;61.90;;;;;;10209744;28;89890;-66
2023/06/20 17:36:17;;;;;;;;;;;25.80;61.80;;;;;;10209838;28;89229;-66
2023/06/20 17:41:19;;;;;;;;;;;25.80;61.70;;;;;;10211515;28;90260;-67
2023/06/20 17:46:21;;;;;;;;;;;25.70;61.70;;;;;;10210822;28;90065;-67
2023/06/20 17:51:23;;;;;;;;;;;25.70;61.70;;;;;;10209529;28;89140;-67
2023/06/20 17:56:25;;;;;;;;;;;25.70;61.70;;;;;;10210448;28;89233;-66
2023/06/20 18:01:27;;;;;;;;;;;25.70;61.70;;;;;;10210350;28;90036;-66
2023/06/20 18:06:28;;;;;;;;;;;25.70;61.80;;;;;;10212705;28;88545;-66
2023/06/20 18:11:30;;;;;;;;;;;25.70;61.90;;;;;;10217363;28;90087;-67
2023/06/20 18:16:32;;;;;;;;;;;25.60;61.90;;;;;;10218333;28;88685;-66
2023/06/20 18:21:37;;;;;;;;;;;25.60;62.00;;;;;;10216833;28;89757;-66
2023/06/20 18:26:39;;;;;;;;;;;25.60;62.00;;;;;;10217484;28;88768;-66
2023/06/20 18:31:41;;;;;;;;;;;25.60;62.10;;;;;;10217345;28;90119;-65
2023/06/20 18:36:43;;;;;;;;;;;25.60;62.20;;;;;;10216465;28;90049;-66
2023/06/20 18:41:45;;;;;;;;;;;25.60;62.20;;;;;;10216029;28;89131;-67
2023/06/20 18:46:47;;;;;;;;;;;25.60;62.20;;;;;;10216497;28;89290;-66
2023/06/20 18:51:49;;;;;;;;;;;25.60;62.20;;;;;;10215932;28;89276;-66
2023/06/20 18:56:51;;;;;;;;;;;25.50;62.10;;;;;;10217205;28;89279;-67
2023/06/20 19:01:52;;;;;;;;;;;25.50;62.10;;;;;;10216248;28;89056;-66
2023/06/20 19:06:55;;;;;;;;;;;25.50;62.20;;;;;;10215758;28;90403;-66
2023/06/20 19:11:58;;;;;;;;;;;25.50;62.20;;;;;;10215118;28;90794;-67
2023/06/20 19:17:00;;;;;;;;;;;25.50;62.20;;;;;;10214382;28;89018;-67
2023/06/20 19:22:02;;;;;;;;;;;25.50;62.30;;;;;;10214113;28;90055;-67
2023/06/20 19:27:04;;;;;;;;;;;25.50;62.20;;;;;;10214023;28;88402;-67
2023/06/20 19:32:07;;;;;;;;;;;25.50;62.20;;;;;;10198027;28;88498;-65
2023/06/20 19:37:08;;;;;;;;;;;25.50;62.10;;;;;;10212649;28;89648;-65
2023/06/20 19:42:10;;;;;;;;;;;25.50;62.20;;;;;;10214965;28;90208;-66
2023/06/20 19:47:12;;;;;;;;;;;25.50;62.20;;;;;;10214581;28;89394;-66
2023/06/20 19:52:15;;;;;;;;;;;25.50;62.10;;;;;;10213296;28;89857;-66
2023/06/20 19:57:16;;;;;;;;;;;25.60;62.20;;;;;;10214672;28;90061;-66
2023/06/20 20:02:21;;;;;;;;;;;25.50;62.00;;;;;;10212754;28;90837;-66
2023/06/20 20:07:23;;;;;;;;;;;25.60;62.00;;;;;;10213654;28;88478;-66
2023/06/20 20:12:25;;;;;;;;;;;25.60;62.80;;;;;;10213126;28;88118;-65
2023/06/20 20:17:27;;;;;;;;;;;25.50;64.00;;;;;;10213268;28;89245;-66
2023/06/20 20:22:29;;;;;;;;;;;25.40;64.70;;;;;;10214108;28;88710;-66
2023/06/20 20:27:31;;;;;;;;;;;25.30;64.90;;;;;;10213063;28;90474;-66
2023/06/20 20:32:32;;;;;;;;;;;25.20;65.10;;;;;;10212614;28;90207;-66
2023/06/20 20:37:34;;;;;;;;;;;25.10;65.20;;;;;;10213047;28;88090;-66
2023/06/20 20:42:36;;;;;;;;;;;25.00;66.00;;;;;;10212131;28;89293;-66
2023/06/20 20:47:38;;;;;;;;;;;24.90;66.30;;;;;;10212547;28;90668;-66
2023/06/20 20:52:40;;;;;;;;;;;24.90;66.50;;;;;;10212213;28;90862;-66
2023/06/20 20:57:42;;;;;;;;;;;24.80;66.50;;;;;;10211718;28;89282;-65
2023/06/20 21:02:45;;;;;;;;;;;24.90;66.30;;;;;;10211406;28;88551;-66
2023/06/20 21:07:47;;;;;;;;;;;25.00;65.90;;;;;;10211820;28;89646;-65
2023/06/20 21:12:49;;;;;;;;;;;25.10;65.50;;;;;;10211136;28;90151;-65
2023/06/20 21:17:51;;;;;;;;;;;25.10;65.10;;;;;;10211005;28;88230;-65
2023/06/20 21:22:53;;;;;;;;;;;25.10;64.80;;;;;;10207101;28;94409;-65
2023/06/20 21:27:55;;;;;;;;;;;25.20;64.70;;;;;;10207210;28;94086;-66
2023/06/20 21:32:59;;;;;;;;;;;25.20;64.50;;;;;;10207234;28;94482;-65
2023/06/20 21:38:02;;;;;;;;;;;25.20;64.30;;;;;;10207033;28;93551;-66
2023/06/20 21:43:03;;;;;;;;;;;25.30;64.10;;;;;;10207036;28;95893;-65
2023/06/20 21:48:05;;;;;;;;;;;25.20;63.90;;;;;;10212989;28;94931;-65
2023/06/20 21:53:08;;;;;;;;;;;25.30;63.80;;;;;;10213268;28;93802;-65
2023/06/20 21:58:13;;;;;;;;;;;25.30;63.60;;;;;;10197222;28;93821;-65
2023/06/20 22:03:15;;;;;;;;;;;25.20;63.40;;;;;;10212987;28;94844;-65
2023/06/20 22:08:17;;;;;;;;;;;25.30;63.40;;;;;;10212601;28;94438;-65
2023/06/20 22:13:18;;;;;;;;;;;25.20;63.20;;;;;;10212384;28;93539;-65
2023/06/20 22:18:21;;;;;;;;;;;25.30;63.30;;;;;;10213622;28;93545;-65
2023/06/20 22:23:23;;;;;;;;;;;25.30;63.10;;;;;;10212521;28;94594;-65
2023/06/20 22:28:25;;;;;;;;;;;25.30;63.20;;;;;;10213204;28;93416;-65
2023/06/20 22:33:27;;;;;;;;;;;25.30;63.10;;;;;;10208627;28;95911;-65
2023/06/20 22:38:30;;;;;;;;;;;25.30;63.00;;;;;;10212047;28;92848;-66
2023/06/20 22:43:32;;;;;;;;;;;25.30;62.90;;;;;;10211633;28;94239;-65
2023/06/20 22:48:34;;;;;;;;;;;25.30;62.70;;;;;;10210204;28;93571;-65
2023/06/20 22:53:36;;;;;;;;;;;25.30;62.70;;;;;;10210089;28;94470;-65
2023/06/20 22:58:38;;;;;;;;;;;25.30;62.70;;;;;;10211895;28;93681;-65
2023/06/20 23:03:40;;;;;;;;;;;25.30;62.50;;;;;;10211682;28;94499;-65
2023/06/20 23:08:42;;;;;;;;;;;25.30;62.60;;;;;;10211431;28;92721;-65
2023/06/20 23:13:44;;;;;;;;;;;25.30;62.50;;;;;;10211748;28;94640;-65
2023/06/20 23:18:46;;;;;;;;;;;25.30;62.50;;;;;;10210633;28;94666;-65
2023/06/20 23:23:50;;;;;;;;;;;25.30;62.30;;;;;;10190903;28;95709;-65
2023/06/20 23:28:51;;;;;;;;;;;25.30;62.30;;;;;;10208807;28;93491;-65
2023/06/20 23:33:53;;;;;;;;;;;25.30;62.30;;;;;;10209547;28;94615;-65
2023/06/20 23:38:56;;;;;;;;;;;25.30;62.20;;;;;;10210248;28;93335;-64
2023/06/20 23:43:58;;;;;;;;;;;25.30;62.10;;;;;;10210183;28;93961;-65
2023/06/20 23:49:00;;;;;;;;;;;25.30;61.90;;;;;;10209262;28;93974;-65
2023/06/20 23:54:03;;;;;;;;;;;25.30;61.90;;;;;;10210341;28;93804;-66
2023/06/20 23:59:05;;;;;;;;;;;25.30;62.00;;;;;;10210628;28;95221;-65
